Terminal Aerodrome Forecast
Issued by NWS Charleston, WV

Home | Current Version | Previous Version | Text Only | Print | Product List | Glossary On
Versions: 1 2 3 4 5 6 7 8 9 10 11 12 13 14 15 16 17 18 19 20 21 22 23
000
FTUS41 KRLX 222300
TAFHTS
TAF
KHTS 222329Z 2300/2324 35005KT P6SM BKN030
     FM230400 33003KT P6SM SCT030
     FM231100 VRB03KT 3SM BR FEW015
     FM231400 32004KT P6SM SCT025
     FM232100 30004KT P6SM FEW035 FEW200=

USA.gov is the U.S. government's official web portal to all federal, state and local government web resources and services.